Dacono, Colorado
Current Conditions -  °F | °C
As of 1:55 AM on Friday 21 Nov 2014 (Local Time) from KEIK Reporting Station
Clear Clear  
Wind Chill: 27°   Ceiling: Unl
Heat Index: 27°   Visibility: 10mi
Dew Point: 24°   Wind: 3mph
Humidity: 90%   Direction: 210°SSW
Pressure: 29.95"   Gusts: NA
Location:  40.08°N, 104.94°W
Report Text: KEIK 210855Z AUTO 21003KT 10SM CLR M03/M04 A2995 RMK AO2 T10301044
Loading
Personal Weather Stations






























Interactive Weather Map New forecast layout! Learn more

10-Day Weather Forecast

Advertisements
Track Severe Weather on mobile